createdAt,value
2018-06-24T00:00:55.594Z,11.82
2018-06-24T00:01:55.521Z,11.79
2018-06-24T00:02:55.506Z,11.83
2018-06-24T00:03:55.478Z,11.79
2018-06-24T00:04:55.406Z,11.79
2018-06-24T00:05:55.378Z,11.88
2018-06-24T00:06:55.339Z,11.78
2018-06-24T00:07:55.311Z,11.78
2018-06-24T00:08:55.401Z,11.78
2018-06-24T00:09:55.234Z,11.75
2018-06-24T00:10:55.195Z,11.79
2018-06-24T00:11:55.170Z,11.76
2018-06-24T00:12:55.118Z,11.76
2018-06-24T00:13:55.121Z,11.78
2018-06-24T00:14:55.053Z,11.75
2018-06-24T00:15:55.039Z,11.76
2018-06-24T00:16:54.989Z,11.78
2018-06-24T00:17:54.940Z,11.80
2018-06-24T00:18:54.922Z,11.79
2018-06-24T00:19:54.859Z,11.70
2018-06-24T00:20:54.858Z,11.79
2018-06-24T00:21:54.839Z,11.75
2018-06-24T00:22:54.832Z,11.73
2018-06-24T00:23:55.531Z,11.75
2018-06-24T00:24:54.668Z,11.72
2018-06-24T00:25:54.631Z,11.72
2018-06-24T00:26:54.609Z,11.73
2018-06-24T00:27:54.621Z,11.72
2018-06-24T00:28:54.537Z,11.69
2018-06-24T00:29:54.493Z,11.73
2018-06-24T00:30:54.485Z,11.69
2018-06-24T00:31:54.438Z,11.67
2018-06-24T00:32:54.438Z,11.69
2018-06-24T00:33:54.488Z,11.65
2018-06-24T00:34:54.323Z,11.70
2018-06-24T00:35:54.350Z,11.75
2018-06-24T00:36:54.270Z,11.73
2018-06-24T00:37:54.190Z,11.72
2018-06-24T00:38:54.176Z,11.70
2018-06-24T00:39:54.169Z,11.75
2018-06-24T00:40:54.097Z,11.70
2018-06-24T00:41:54.041Z,11.70
2018-06-24T00:42:54.141Z,11.72
2018-06-24T00:43:54.026Z,11.67
2018-06-24T00:44:54.071Z,11.75
2018-06-24T00:45:53.984Z,11.67
2018-06-24T00:46:53.924Z,11.73
2018-06-24T00:47:53.877Z,11.75
2018-06-24T00:48:53.770Z,11.72
2018-06-24T00:49:53.740Z,11.75
2018-06-24T00:50:53.702Z,11.79
2018-06-24T00:51:53.698Z,11.72
2018-06-24T00:52:53.629Z,11.69
2018-06-24T00:53:53.604Z,11.75
2018-06-24T00:54:53.560Z,11.72
2018-06-24T00:55:53.530Z,11.69
2018-06-24T00:56:53.477Z,11.70
2018-06-24T00:57:53.463Z,11.75
2018-06-24T00:58:53.423Z,11.75
2018-06-24T00:59:53.381Z,11.72
2018-06-24T01:00:53.351Z,11.80
2018-06-24T01:01:53.302Z,11.73
2018-06-24T01:02:53.261Z,11.72
2018-06-24T01:03:53.224Z,11.72
2018-06-24T01:04:53.204Z,11.72
2018-06-24T01:05:53.152Z,11.78
2018-06-24T01:06:53.131Z,11.67
2018-06-24T01:07:53.089Z,11.85
2018-06-24T01:08:53.046Z,11.78
2018-06-24T01:09:53.013Z,11.80
2018-06-24T01:10:52.981Z,11.72
2018-06-24T01:11:52.925Z,11.78
2018-06-24T01:12:52.878Z,11.78
2018-06-24T01:13:52.866Z,11.72
2018-06-24T01:14:52.808Z,11.75
2018-06-24T01:15:52.768Z,11.75
2018-06-24T01:16:52.758Z,11.73
2018-06-24T01:17:52.735Z,11.75
2018-06-24T01:18:52.733Z,11.67
2018-06-24T01:19:52.724Z,11.72
2018-06-24T01:20:52.625Z,11.70
2018-06-24T01:21:52.549Z,11.79
2018-06-24T01:22:52.537Z,11.72
2018-06-24T01:23:52.509Z,11.78
2018-06-24T01:24:52.443Z,11.70
2018-06-24T01:25:52.450Z,11.76
2018-06-24T01:26:52.370Z,11.67
2018-06-24T01:27:52.328Z,11.65
2018-06-24T01:28:52.312Z,11.80
2018-06-24T01:29:52.257Z,11.76
2018-06-24T01:30:52.246Z,11.72
2018-06-24T01:31:52.207Z,11.69
2018-06-24T01:32:52.138Z,11.69
2018-06-24T01:33:52.121Z,11.72
2018-06-24T01:34:52.066Z,11.69
2018-06-24T01:35:52.072Z,11.69
2018-06-24T01:36:51.983Z,11.78
2018-06-24T01:37:51.967Z,11.69
2018-06-24T01:38:51.927Z,11.67
2018-06-24T01:39:51.880Z,11.65
2018-06-24T01:40:51.882Z,11.67
2018-06-24T01:41:51.827Z,11.72
2018-06-24T01:42:51.765Z,11.69
2018-06-24T01:43:51.736Z,11.70
2018-06-24T01:44:51.687Z,11.72
2018-06-24T01:45:51.656Z,11.72
2018-06-24T01:46:51.623Z,11.70
2018-06-24T01:47:51.614Z,11.67
2018-06-24T01:48:51.558Z,11.64
2018-06-24T01:49:51.535Z,11.64
2018-06-24T01:50:51.492Z,11.65
2018-06-24T01:51:51.432Z,11.70
2018-06-24T01:52:51.450Z,11.67
2018-06-24T01:53:51.359Z,11.64
2018-06-24T01:54:51.359Z,11.69
2018-06-24T01:55:51.278Z,11.67
2018-06-24T01:56:51.272Z,11.60
2018-06-24T01:57:51.207Z,11.67
2018-06-24T01:58:51.189Z,11.55
2018-06-24T01:59:51.262Z,11.54
2018-06-24T02:00:51.107Z,11.47
2018-06-24T02:01:51.072Z,11.51
2018-06-24T02:02:51.040Z,11.52
2018-06-24T02:03:51.056Z,11.49
2018-06-24T02:04:50.950Z,11.47
2018-06-24T02:05:50.979Z,11.51
2018-06-24T02:06:50.872Z,11.51
2018-06-24T02:07:50.869Z,11.51
2018-06-24T02:08:50.820Z,11.51
2018-06-24T02:09:50.795Z,11.51
2018-06-24T02:10:50.733Z,11.47
2018-06-24T02:11:50.716Z,11.51
2018-06-24T02:12:50.646Z,11.47
2018-06-24T02:13:50.619Z,11.47
2018-06-24T02:14:50.580Z,11.49
2018-06-24T02:15:50.595Z,11.51
2018-06-24T02:16:50.499Z,11.55
2018-06-24T02:17:50.470Z,11.52
2018-06-24T02:18:50.421Z,11.43
2018-06-24T02:19:50.386Z,11.49
2018-06-24T02:20:50.455Z,11.51
2018-06-24T02:21:50.372Z,11.51
2018-06-24T02:22:50.296Z,11.37
2018-06-24T02:23:50.235Z,11.49
2018-06-24T02:24:50.219Z,11.40
2018-06-24T02:25:50.175Z,11.47
2018-06-24T02:26:50.129Z,11.43
2018-06-24T02:27:50.108Z,11.39
2018-06-24T02:28:50.056Z,11.46
2018-06-24T02:29:50.009Z,11.39
2018-06-24T02:30:49.982Z,11.42
2018-06-24T02:31:49.947Z,11.51
2018-06-24T02:32:49.956Z,11.37
2018-06-24T02:33:49.867Z,11.40
2018-06-24T02:34:49.848Z,11.43
2018-06-24T02:35:49.800Z,11.42
2018-06-24T02:36:49.766Z,11.43
2018-06-24T02:37:49.709Z,11.42
2018-06-24T02:38:49.699Z,11.39
2018-06-24T02:39:49.634Z,11.42
2018-06-24T02:40:49.612Z,11.33
2018-06-24T02:41:49.577Z,11.35
2018-06-24T02:42:49.548Z,11.42
2018-06-24T02:43:49.503Z,11.39
2018-06-24T02:44:49.456Z,11.39
2018-06-24T02:45:49.414Z,11.37
2018-06-24T02:46:49.394Z,11.37
2018-06-24T02:47:49.362Z,11.29
2018-06-24T02:48:49.327Z,11.37
2018-06-24T02:49:49.265Z,11.36
2018-06-24T02:50:49.257Z,11.37
2018-06-24T02:51:49.194Z,11.32
2018-06-24T02:52:49.153Z,11.27
2018-06-24T02:53:49.138Z,11.28
2018-06-24T02:54:49.084Z,11.37
2018-06-24T02:55:49.061Z,11.37
2018-06-24T02:56:49.021Z,11.25
2018-06-24T02:57:49.015Z,11.25
2018-06-24T02:58:48.947Z,11.36
2018-06-24T02:59:48.905Z,11.32
2018-06-24T03:00:48.853Z,11.25
2018-06-24T03:01:48.935Z,11.33
2018-06-24T03:02:48.828Z,11.37
2018-06-24T03:03:48.755Z,11.35
2018-06-24T03:04:48.705Z,11.33
2018-06-24T03:05:48.693Z,11.32
2018-06-24T03:06:48.625Z,11.32
2018-06-24T03:07:48.612Z,11.35
2018-06-24T03:08:48.596Z,11.28
2018-06-24T03:09:48.526Z,11.37
2018-06-24T03:10:48.539Z,11.39
2018-06-24T03:11:48.467Z,11.37
2018-06-24T03:12:48.406Z,11.40
2018-06-24T03:13:48.469Z,11.33
2018-06-24T03:14:48.338Z,11.33
2018-06-24T03:15:48.307Z,11.29
2018-06-24T03:16:48.254Z,11.29
2018-06-24T03:17:48.221Z,11.29
2018-06-24T03:18:48.188Z,11.29
2018-06-24T03:19:48.153Z,11.36
2018-06-24T03:20:48.107Z,11.36
2018-06-24T03:21:48.073Z,11.32
2018-06-24T03:22:48.028Z,11.32
2018-06-24T03:23:47.997Z,11.36
2018-06-24T03:24:47.959Z,11.40
2018-06-24T03:25:47.942Z,11.35
2018-06-24T03:26:47.882Z,11.40
2018-06-24T03:27:47.875Z,11.32
2018-06-24T03:28:47.799Z,11.37
2018-06-24T03:29:47.797Z,11.33
2018-06-24T03:30:47.761Z,11.37
2018-06-24T03:31:47.718Z,11.36
2018-06-24T03:32:47.680Z,11.36
2018-06-24T03:33:47.614Z,11.39
2018-06-24T03:34:47.606Z,11.44
2018-06-24T03:35:47.576Z,11.42
2018-06-24T03:36:47.526Z,11.37
2018-06-24T03:37:47.473Z,11.42
2018-06-24T03:38:47.462Z,11.40
2018-06-24T03:39:47.409Z,11.42
2018-06-24T03:40:47.453Z,11.44
2018-06-24T03:41:47.322Z,11.46
2018-06-24T03:42:47.285Z,11.43
2018-06-24T03:43:47.276Z,11.43
2018-06-24T03:44:47.219Z,11.46
2018-06-24T03:45:47.223Z,11.46
2018-06-24T03:46:47.134Z,11.39
2018-06-24T03:47:47.105Z,11.51
2018-06-24T03:48:47.063Z,11.57
2018-06-24T03:49:47.028Z,11.58
2018-06-24T03:50:47.015Z,11.49
2018-06-24T03:51:46.955Z,11.58
2018-06-24T03:52:46.919Z,11.47
2018-06-24T03:53:46.864Z,11.61
2018-06-24T03:54:46.844Z,11.70
2018-06-24T03:55:46.791Z,11.64
2018-06-24T03:56:46.755Z,11.67
2018-06-24T03:57:46.720Z,11.69
2018-06-24T03:58:46.677Z,11.69
2018-06-24T03:59:46.657Z,11.73
2018-06-24T04:00:46.653Z,11.78
2018-06-24T04:01:46.610Z,11.78
2018-06-24T04:02:46.587Z,11.85
2018-06-24T04:03:46.536Z,11.80
2018-06-24T04:04:46.658Z,11.95
2018-06-24T04:05:46.421Z,12.05
2018-06-24T04:06:46.421Z,12.01
2018-06-24T04:07:46.359Z,12.04
2018-06-24T04:08:46.311Z,12.01
2018-06-24T04:09:47.089Z,12.09
2018-06-24T04:10:46.234Z,12.12
2018-06-24T04:11:46.224Z,12.14
2018-06-24T04:12:46.152Z,12.29
2018-06-24T04:13:46.190Z,12.21
2018-06-24T04:14:46.118Z,12.20
2018-06-24T04:15:46.056Z,12.28
2018-06-24T04:16:46.603Z,12.34
2018-06-24T04:17:45.980Z,12.34
2018-06-24T04:18:45.981Z,12.38
2018-06-24T04:19:45.913Z,12.31
2018-06-24T04:20:45.906Z,12.38
2018-06-24T04:21:45.838Z,12.46
2018-06-24T04:22:45.800Z,12.45
2018-06-24T04:23:45.747Z,12.50
2018-06-24T04:24:45.726Z,12.49
2018-06-24T04:25:45.686Z,12.45
2018-06-24T04:26:45.652Z,12.64
2018-06-24T04:27:45.626Z,12.59
2018-06-24T04:28:45.619Z,12.57
2018-06-24T04:29:45.654Z,12.62
2018-06-24T04:30:45.509Z,12.65
2018-06-24T04:31:45.508Z,12.49
2018-06-24T04:32:45.448Z,12.62
2018-06-24T04:33:45.409Z,12.67
2018-06-24T04:34:45.423Z,12.72
2018-06-24T04:35:45.324Z,12.79
2018-06-24T04:36:45.283Z,12.90
2018-06-24T04:37:45.229Z,12.90
2018-06-24T04:38:45.213Z,13.04
2018-06-24T04:39:45.265Z,13.14
2018-06-24T04:40:45.148Z,13.14
2018-06-24T04:41:45.152Z,13.22
2018-06-24T04:42:45.115Z,13.15
2018-06-24T04:43:45.038Z,13.39
2018-06-24T04:44:45.008Z,13.49
2018-06-24T04:45:44.944Z,14.91
2018-06-24T04:46:44.921Z,15.01
2018-06-24T04:47:44.918Z,15.27
2018-06-24T04:48:44.875Z,15.89
2018-06-24T04:49:44.801Z,15.86
2018-06-24T04:50:44.833Z,15.68
2018-06-24T04:51:44.835Z,15.47
2018-06-24T04:52:44.706Z,15.28
2018-06-24T04:53:44.768Z,15.09
2018-06-24T04:54:44.622Z,14.92
2018-06-24T04:55:44.580Z,14.78
2018-06-24T04:56:44.627Z,14.65
2018-06-24T04:57:44.558Z,14.62
2018-06-24T04:58:44.472Z,14.36
2018-06-24T04:59:44.452Z,14.27
2018-06-24T05:00:44.441Z,14.15
2018-06-24T05:01:44.394Z,14.00
2018-06-24T05:02:44.386Z,13.87
2018-06-24T05:03:44.310Z,13.84
2018-06-24T05:04:44.264Z,13.81
2018-06-24T05:05:44.384Z,13.88
2018-06-24T05:06:44.198Z,13.78
2018-06-24T05:07:44.167Z,13.78
2018-06-24T05:08:44.113Z,13.92
2018-06-24T05:09:44.089Z,13.91
2018-06-24T05:10:44.066Z,14.03
2018-06-24T05:11:44.014Z,14.09
2018-06-24T05:12:43.999Z,14.15
2018-06-24T05:13:43.960Z,14.14
2018-06-24T05:14:43.928Z,14.14
2018-06-24T05:15:43.904Z,14.15
2018-06-24T05:16:43.870Z,14.24
2018-06-24T05:17:43.845Z,14.24
2018-06-24T05:18:43.776Z,14.27
2018-06-24T05:19:43.770Z,14.29
2018-06-24T05:20:43.694Z,14.32
2018-06-24T05:21:43.684Z,14.39
2018-06-24T05:22:43.648Z,14.32
2018-06-24T05:23:43.640Z,14.37
2018-06-24T05:24:43.561Z,14.40
2018-06-24T05:25:43.531Z,14.43
2018-06-24T05:26:43.488Z,14.51
2018-06-24T05:27:43.486Z,14.55
2018-06-24T05:28:43.424Z,14.61
2018-06-24T05:29:43.413Z,14.72
2018-06-24T05:30:43.358Z,14.68
2018-06-24T05:31:43.326Z,14.80
2018-06-24T05:32:43.320Z,14.62
2018-06-24T05:33:43.240Z,14.65
2018-06-24T05:34:43.247Z,14.54
2018-06-24T05:35:43.252Z,14.54
2018-06-24T05:36:43.171Z,14.62
2018-06-24T05:37:43.189Z,14.55
2018-06-24T05:38:43.111Z,14.61
2018-06-24T05:39:43.063Z,14.68
2018-06-24T05:40:43.031Z,14.72
2018-06-24T05:41:42.990Z,14.75
2018-06-24T05:42:42.983Z,14.83
2018-06-24T05:43:42.915Z,14.69
2018-06-24T05:44:42.919Z,14.75
2018-06-24T05:45:42.850Z,15.01
2018-06-24T05:46:42.801Z,15.10
2018-06-24T05:47:42.798Z,14.77
2018-06-24T05:48:42.748Z,14.91
2018-06-24T05:49:42.794Z,15.10
2018-06-24T05:50:42.653Z,15.19
2018-06-24T05:51:42.616Z,15.28
2018-06-24T05:52:42.614Z,15.29
2018-06-24T05:53:42.624Z,15.44
2018-06-24T05:54:42.661Z,15.27
2018-06-24T05:55:42.502Z,15.35
2018-06-24T05:56:42.480Z,15.53
2018-06-24T05:57:42.488Z,15.21
2018-06-24T05:58:42.578Z,14.99
2018-06-24T05:59:42.352Z,15.02
2018-06-24T06:00:42.332Z,15.13
2018-06-24T06:01:42.289Z,15.28
2018-06-24T06:02:42.277Z,15.39
2018-06-24T06:03:42.216Z,15.23
2018-06-24T06:04:42.250Z,15.25
2018-06-24T06:05:42.142Z,15.44
2018-06-24T06:06:42.145Z,15.44
2018-06-24T06:07:42.093Z,15.49
2018-06-24T06:08:42.042Z,15.59
2018-06-24T06:09:41.999Z,15.69
2018-06-24T06:10:41.982Z,15.69
2018-06-24T06:11:41.955Z,15.82
2018-06-24T06:12:41.908Z,15.87
2018-06-24T06:13:41.886Z,16.08
2018-06-24T06:14:41.864Z,16.24
2018-06-24T06:15:41.805Z,16.25
2018-06-24T06:16:41.790Z,16.39
2018-06-24T06:17:41.754Z,16.23
2018-06-24T06:18:41.714Z,16.31
2018-06-24T06:19:41.719Z,16.49
2018-06-24T06:20:41.724Z,16.41
2018-06-24T06:21:41.668Z,16.52
2018-06-24T06:22:41.572Z,16.14
2018-06-24T06:23:41.555Z,16.11
2018-06-24T06:24:41.512Z,15.78
2018-06-24T06:25:41.461Z,15.83
2018-06-24T06:26:42.168Z,15.76
2018-06-24T06:27:41.416Z,16.00
2018-06-24T06:28:41.367Z,15.86
2018-06-24T06:29:41.368Z,15.92
2018-06-24T06:30:41.336Z,16.14
2018-06-24T06:31:41.281Z,16.04
2018-06-24T06:32:41.245Z,15.89
2018-06-24T06:33:41.219Z,15.65
2018-06-24T06:34:41.178Z,15.80
2018-06-24T06:35:41.255Z,15.82
2018-06-24T06:36:41.166Z,16.00
2018-06-24T06:37:41.103Z,15.78
2018-06-24T06:38:41.089Z,15.80
2018-06-24T06:39:41.024Z,16.04
2018-06-24T06:40:41.028Z,16.01
2018-06-24T06:41:40.948Z,16.17
2018-06-24T06:42:40.954Z,16.38
2018-06-24T06:43:40.882Z,16.24
2018-06-24T06:44:40.838Z,16.33
2018-06-24T06:45:41.038Z,16.48
2018-06-24T06:46:40.780Z,16.53
2018-06-24T06:47:40.766Z,16.68
2018-06-24T06:48:40.722Z,16.71
2018-06-24T06:49:40.691Z,16.67
2018-06-24T06:50:40.689Z,16.96
2018-06-24T06:51:40.611Z,16.98
2018-06-24T06:52:40.598Z,16.83
2018-06-24T06:53:40.551Z,16.79
2018-06-24T06:54:40.524Z,16.89
2018-06-24T06:55:40.488Z,16.67
2018-06-24T06:56:40.475Z,16.66
2018-06-24T06:57:40.509Z,16.86
2018-06-24T06:58:40.401Z,16.83
2018-06-24T06:59:40.376Z,17.07
2018-06-24T07:00:40.366Z,16.83
2018-06-24T07:01:40.296Z,16.89
2018-06-24T07:02:40.294Z,17.15
2018-06-24T07:03:40.253Z,17.07
2018-06-24T07:04:40.243Z,17.21
2018-06-24T07:05:40.282Z,17.38
2018-06-24T07:06:40.211Z,17.31
2018-06-24T07:07:40.106Z,17.37
2018-06-24T07:08:40.511Z,17.52
2018-06-24T07:09:40.090Z,17.62
2018-06-24T07:10:40.005Z,17.81
2018-06-24T07:11:39.972Z,17.71
2018-06-24T07:12:40.034Z,17.38
2018-06-24T07:13:39.906Z,17.71
2018-06-24T07:14:39.926Z,17.84
2018-06-24T07:15:39.875Z,17.82
2018-06-24T07:16:39.837Z,18.36
2018-06-24T07:17:39.828Z,18.58
2018-06-24T07:18:39.771Z,18.65
2018-06-24T07:19:39.796Z,19.47
2018-06-24T07:20:39.722Z,19.91
2018-06-24T07:21:39.648Z,20.06
2018-06-24T07:22:39.647Z,20.52
2018-06-24T07:23:39.594Z,21.03
2018-06-24T07:24:39.673Z,20.50
2018-06-24T07:25:39.615Z,20.58
2018-06-24T07:26:39.520Z,20.39
2018-06-24T07:27:39.503Z,19.54
2018-06-24T07:28:39.455Z,19.22
2018-06-24T07:29:39.446Z,18.87
2018-06-24T07:30:39.545Z,18.80
2018-06-24T07:31:39.428Z,18.98
2018-06-24T07:32:39.932Z,19.41
2018-06-24T07:33:39.536Z,19.51
2018-06-24T07:34:39.324Z,19.71
2018-06-24T07:35:39.244Z,20.55
2018-06-24T07:36:39.225Z,20.77
2018-06-24T07:37:39.280Z,19.98
2018-06-24T07:38:39.304Z,19.77
2018-06-24T07:39:39.204Z,20.05
2018-06-24T07:40:39.110Z,19.99
2018-06-24T07:41:39.089Z,19.37
2018-06-24T07:42:39.076Z,19.04
2018-06-24T07:43:39.003Z,18.63
2018-06-24T07:44:38.986Z,18.55
2018-06-24T07:45:38.984Z,18.63
2018-06-24T07:46:38.923Z,18.87
2018-06-24T07:47:38.914Z,18.57
2018-06-24T07:48:38.891Z,18.62
2018-06-24T07:49:38.847Z,18.32
2018-06-24T07:50:38.810Z,17.82
2018-06-24T07:51:38.789Z,17.77
2018-06-24T07:52:38.787Z,17.79
2018-06-24T07:53:38.759Z,17.77
2018-06-24T07:54:38.720Z,17.82
2018-06-24T07:55:38.675Z,18.15
2018-06-24T07:56:38.624Z,18.00
2018-06-24T07:57:38.600Z,17.74
2018-06-24T07:58:38.572Z,17.87
2018-06-24T07:59:38.542Z,18.08
2018-06-24T08:00:38.517Z,18.39
2018-06-24T08:01:38.485Z,18.44
2018-06-24T08:02:38.450Z,18.58
2018-06-24T08:03:38.442Z,18.67
2018-06-24T08:04:38.402Z,18.99
2018-06-24T08:05:38.386Z,18.90
2018-06-24T08:06:38.328Z,19.76
2018-06-24T08:07:38.309Z,20.59
2018-06-24T08:08:38.280Z,20.74
2018-06-24T08:09:38.270Z,20.58
2018-06-24T08:10:38.266Z,20.38
2018-06-24T08:11:38.221Z,20.62
2018-06-24T08:12:38.170Z,20.76
2018-06-24T08:13:38.141Z,20.38
2018-06-24T08:14:38.131Z,19.77
2018-06-24T08:15:38.079Z,19.62
2018-06-24T08:16:38.088Z,19.54
2018-06-24T08:17:38.064Z,19.39
2018-06-24T08:18:38.009Z,19.31
2018-06-24T08:19:37.997Z,19.28
2018-06-24T08:20:37.978Z,18.84
2018-06-24T08:21:37.917Z,18.95
2018-06-24T08:22:37.877Z,18.84
2018-06-24T08:23:37.868Z,18.85
2018-06-24T08:24:37.858Z,19.16
2018-06-24T08:25:37.831Z,19.36
2018-06-24T08:26:37.763Z,19.29
2018-06-24T08:27:37.751Z,18.98
2018-06-24T08:28:37.702Z,18.84
2018-06-24T08:29:37.797Z,19.22
2018-06-24T08:30:37.656Z,19.39
2018-06-24T08:31:37.708Z,19.40
2018-06-24T08:32:37.588Z,19.37
2018-06-24T08:33:37.584Z,19.61
2018-06-24T08:34:37.558Z,19.66
2018-06-24T08:35:37.533Z,19.58
2018-06-24T08:36:37.486Z,19.39
2018-06-24T08:37:37.461Z,19.29
2018-06-24T08:38:37.409Z,19.04
2018-06-24T08:39:37.384Z,18.73
2018-06-24T08:40:37.382Z,18.63
2018-06-24T08:41:37.321Z,18.65
2018-06-24T08:42:37.324Z,18.87
2018-06-24T08:43:38.253Z,18.87
2018-06-24T08:44:37.248Z,19.16
2018-06-24T08:45:37.233Z,19.31
2018-06-24T08:46:37.207Z,18.87
2018-06-24T08:47:37.183Z,18.60
2018-06-24T08:48:37.129Z,18.57
2018-06-24T08:49:37.213Z,18.32
2018-06-24T08:50:37.109Z,18.12
2018-06-24T08:51:37.102Z,18.66
2018-06-24T08:52:37.053Z,18.75
2018-06-24T08:53:37.035Z,18.92
2018-06-24T08:54:36.961Z,18.94
2018-06-24T08:55:36.932Z,19.23
2018-06-24T08:56:36.918Z,19.39
2018-06-24T08:57:36.890Z,19.16
2018-06-24T08:58:36.945Z,19.07
2018-06-24T08:59:36.860Z,18.51
2018-06-24T09:00:36.790Z,18.52
2018-06-24T09:01:36.768Z,18.33
2018-06-24T09:02:36.738Z,18.26
2018-06-24T09:03:36.705Z,18.23
2018-06-24T09:04:36.682Z,18.48
2018-06-24T09:05:36.643Z,18.62
2018-06-24T09:06:36.609Z,18.62
2018-06-24T09:07:36.586Z,18.42
2018-06-24T09:08:36.576Z,18.03
2018-06-24T09:09:36.551Z,18.23
2018-06-24T09:10:36.543Z,18.36
2018-06-24T09:11:36.449Z,18.30
2018-06-24T09:12:36.530Z,17.99
2018-06-24T09:13:36.468Z,18.32
2018-06-24T09:14:36.704Z,18.26
2018-06-24T09:15:36.370Z,18.33
2018-06-24T09:16:36.316Z,18.42
2018-06-24T09:17:36.309Z,18.15
2018-06-24T09:18:36.253Z,18.02
2018-06-24T09:19:37.610Z,18.26
2018-06-24T09:20:36.197Z,18.60
2018-06-24T09:21:36.278Z,18.72
2018-06-24T09:22:36.139Z,18.90
2018-06-24T09:23:36.484Z,18.60
2018-06-24T09:24:36.152Z,18.52
2018-06-24T09:25:36.027Z,18.73
2018-06-24T09:26:36.019Z,18.41
2018-06-24T09:27:35.996Z,18.36
2018-06-24T09:28:35.946Z,18.30
2018-06-24T09:29:35.908Z,18.57
2018-06-24T09:30:35.902Z,18.80
2018-06-24T09:31:35.865Z,18.95
2018-06-24T09:32:35.827Z,18.63
2018-06-24T09:33:35.828Z,18.65
2018-06-24T09:34:35.765Z,18.84
2018-06-24T09:35:35.760Z,18.66
2018-06-24T09:36:35.720Z,18.70
2018-06-24T09:37:35.681Z,19.11
2018-06-24T09:38:35.662Z,19.18
2018-06-24T09:39:35.619Z,18.80
2018-06-24T09:40:35.578Z,18.75
2018-06-24T09:41:35.587Z,18.73
2018-06-24T09:42:35.527Z,19.06
2018-06-24T09:43:35.525Z,18.87
2018-06-24T09:44:35.483Z,18.60
2018-06-24T09:45:35.425Z,18.39
2018-06-24T09:46:35.405Z,18.33
2018-06-24T09:47:35.374Z,18.47
2018-06-24T09:48:35.350Z,18.78
2018-06-24T09:49:35.496Z,18.63
2018-06-24T09:50:35.323Z,18.78
2018-06-24T09:51:35.280Z,18.39
2018-06-24T09:52:49.895Z,18.20
2018-06-24T09:53:35.199Z,17.96
2018-06-24T09:54:35.189Z,18.32
2018-06-24T09:55:35.154Z,18.33
2018-06-24T09:56:35.146Z,18.63
2018-06-24T09:57:35.122Z,18.76
2018-06-24T09:58:35.061Z,18.63
2018-06-24T09:59:35.021Z,18.63
2018-06-24T10:00:35.003Z,18.72
2018-06-24T10:01:34.958Z,18.50
2018-06-24T10:02:34.925Z,18.21
2018-06-24T10:03:34.920Z,18.55
2018-06-24T10:04:34.876Z,18.63
2018-06-24T10:05:34.852Z,18.51
2018-06-24T10:06:34.817Z,18.63
2018-06-24T10:07:34.793Z,18.94
2018-06-24T10:08:34.765Z,19.08
2018-06-24T10:09:34.738Z,19.31
2018-06-24T10:10:34.706Z,19.55
2018-06-24T10:11:34.663Z,19.74
2018-06-24T10:12:34.636Z,19.80
2018-06-24T10:13:34.606Z,19.63
2018-06-24T10:14:34.603Z,19.39
2018-06-24T10:15:34.562Z,18.95
2018-06-24T10:16:34.519Z,19.00
2018-06-24T10:17:34.525Z,18.90
2018-06-24T10:18:34.504Z,18.51
2018-06-24T10:19:34.420Z,18.36
2018-06-24T10:20:34.421Z,18.50
2018-06-24T10:21:34.392Z,18.67
2018-06-24T10:22:34.332Z,18.94
2018-06-24T10:23:34.333Z,19.32
2018-06-24T10:24:34.286Z,19.26
2018-06-24T10:25:34.255Z,19.02
2018-06-24T10:26:34.258Z,19.08
2018-06-24T10:27:34.240Z,19.32
2018-06-24T10:28:34.165Z,19.08
2018-06-24T10:29:34.181Z,19.11
2018-06-24T10:30:34.104Z,19.28
2018-06-24T10:31:34.058Z,18.95
2018-06-24T10:32:34.053Z,19.04
2018-06-24T10:33:34.014Z,18.99
2018-06-24T10:34:33.985Z,19.07
2018-06-24T10:35:33.955Z,19.33
2018-06-24T10:36:33.928Z,19.47
2018-06-24T10:37:33.892Z,19.77
2018-06-24T10:38:34.731Z,20.03
2018-06-24T10:39:33.830Z,20.11
2018-06-24T10:40:33.813Z,19.99
2018-06-24T10:41:33.811Z,19.74
2018-06-24T10:42:33.775Z,19.86
2018-06-24T10:43:33.721Z,19.46
2018-06-24T10:44:33.698Z,19.54
2018-06-24T10:45:33.645Z,19.61
2018-06-24T10:46:33.613Z,19.65
2018-06-24T10:47:33.638Z,19.62
2018-06-24T10:48:33.580Z,19.48
2018-06-24T10:49:33.596Z,19.40
2018-06-24T10:50:33.498Z,19.26
2018-06-24T10:51:33.499Z,19.29
2018-06-24T10:52:33.460Z,19.22
2018-06-24T10:53:33.419Z,19.14
2018-06-24T10:54:33.386Z,19.11
2018-06-24T10:55:33.355Z,19.43
2018-06-24T10:56:33.325Z,19.68
2018-06-24T10:57:33.330Z,19.86
2018-06-24T10:58:33.280Z,20.17
2018-06-24T10:59:33.231Z,19.98
2018-06-24T11:00:33.221Z,20.03
2018-06-24T11:01:33.177Z,20.01
2018-06-24T11:02:33.189Z,20.38
2018-06-24T11:03:33.133Z,20.14
2018-06-24T11:04:33.110Z,20.55
2018-06-24T11:05:33.076Z,20.52
2018-06-24T11:06:33.070Z,20.66
2018-06-24T11:07:33.032Z,20.72
2018-06-24T11:08:32.988Z,20.62
2018-06-24T11:09:32.962Z,20.98
2018-06-24T11:10:32.915Z,20.67
2018-06-24T11:11:32.897Z,20.62
2018-06-24T11:12:32.872Z,20.66
2018-06-24T11:13:32.856Z,20.10
2018-06-24T11:14:32.813Z,20.03
2018-06-24T11:15:32.780Z,19.66
2018-06-24T11:16:32.794Z,19.44
2018-06-24T11:17:32.750Z,19.58
2018-06-24T11:18:32.686Z,19.87
2018-06-24T11:19:32.679Z,20.08
2018-06-24T11:20:32.666Z,19.76
2018-06-24T11:21:32.615Z,19.83
2018-06-24T11:22:32.596Z,19.78
2018-06-24T11:23:32.589Z,19.87
2018-06-24T11:24:32.524Z,20.05
2018-06-24T11:25:32.536Z,20.05
2018-06-24T11:26:32.471Z,20.17
2018-06-24T11:27:32.496Z,20.06
2018-06-24T11:28:32.427Z,20.02
2018-06-24T11:29:32.385Z,20.06
2018-06-24T11:30:32.371Z,20.13
2018-06-24T11:31:32.330Z,20.13
2018-06-24T11:32:32.329Z,20.10
2018-06-24T11:33:32.271Z,20.08
2018-06-24T11:34:32.257Z,20.18
2018-06-24T11:35:32.209Z,19.61
2018-06-24T11:36:32.198Z,19.81
2018-06-24T11:37:32.219Z,19.98
2018-06-24T11:38:32.148Z,20.06
2018-06-24T11:39:32.100Z,20.24
2018-06-24T11:40:32.086Z,20.36
2018-06-24T11:41:32.036Z,20.26
2018-06-24T11:42:32.013Z,19.65
2018-06-24T11:43:31.996Z,19.76
2018-06-24T11:44:31.959Z,19.95
2018-06-24T11:45:31.914Z,19.58
2018-06-24T11:46:31.922Z,19.94
2018-06-24T11:47:31.880Z,20.03
2018-06-24T11:48:31.864Z,20.13
2018-06-24T11:49:31.812Z,20.32
2018-06-24T11:50:31.780Z,20.03
2018-06-24T11:51:31.789Z,20.23
2018-06-24T11:52:31.752Z,20.11
2018-06-24T11:53:31.697Z,20.11
2018-06-24T11:54:31.680Z,20.03
2018-06-24T11:55:31.687Z,20.01
2018-06-24T11:56:31.599Z,20.31
2018-06-24T11:57:31.687Z,19.95
2018-06-24T11:58:31.545Z,20.13
2018-06-24T11:59:31.572Z,20.26
2018-06-24T12:00:31.485Z,20.21
2018-06-24T12:01:31.465Z,20.33
2018-06-24T12:02:31.489Z,20.66
2018-06-24T12:03:31.402Z,20.33
2018-06-24T12:04:31.370Z,20.33
2018-06-24T12:05:31.345Z,20.76
2018-06-24T12:06:31.327Z,20.73
2018-06-24T12:07:31.291Z,21.01
2018-06-24T12:08:31.259Z,20.69
2018-06-24T12:09:31.249Z,20.70
2018-06-24T12:10:31.207Z,20.54
2018-06-24T12:11:31.172Z,20.31
2018-06-24T12:12:31.220Z,20.24
2018-06-24T12:13:31.775Z,20.18
2018-06-24T12:14:31.100Z,19.84
2018-06-24T12:15:31.082Z,19.66
2018-06-24T12:16:31.034Z,19.40
2018-06-24T12:17:31.021Z,19.36
2018-06-24T12:18:30.974Z,19.29
2018-06-24T12:19:31.008Z,19.33
2018-06-24T12:20:30.920Z,19.62
2018-06-24T12:21:30.916Z,19.74
2018-06-24T12:22:30.898Z,19.94
2018-06-24T12:23:30.844Z,19.98
2018-06-24T12:24:30.820Z,20.06
2018-06-24T12:25:30.778Z,20.08
2018-06-24T12:26:30.754Z,20.20
2018-06-24T12:27:30.716Z,20.06
2018-06-24T12:28:30.704Z,20.11
2018-06-24T12:29:30.753Z,20.20
2018-06-24T12:30:30.641Z,20.36
2018-06-24T12:31:30.613Z,20.43
2018-06-24T12:32:30.586Z,20.52
2018-06-24T12:33:30.574Z,20.66
2018-06-24T12:34:30.525Z,20.51
2018-06-24T12:35:30.502Z,20.41
2018-06-24T12:36:30.466Z,20.57
2018-06-24T12:37:30.459Z,20.74
2018-06-24T12:38:30.456Z,21.06
2018-06-24T12:39:30.380Z,21.07
2018-06-24T12:40:30.341Z,21.22
2018-06-24T12:41:30.370Z,20.87
2018-06-24T12:42:30.315Z,20.57
2018-06-24T12:43:30.340Z,20.01
2018-06-24T12:44:30.253Z,20.03
2018-06-24T12:45:30.233Z,19.88
2018-06-24T12:46:30.174Z,19.80
2018-06-24T12:47:30.189Z,19.99
2018-06-24T12:48:30.109Z,20.10
2018-06-24T12:49:30.190Z,20.20
2018-06-24T12:50:30.065Z,20.57
2018-06-24T12:51:30.028Z,20.77
2018-06-24T12:52:30.011Z,20.77